sensor_id;sensor_type;location;lat;lon;timestamp;P1;durP1;ratioP1;P2;durP2;ratioP2
73951;SDS011;62304;47.662;18.324;2022-10-16T00:02:43;12.35;;;6.15;;
73951;SDS011;62304;47.662;18.324;2022-10-16T00:05:51;16.05;;;6.93;;
73951;SDS011;62304;47.662;18.324;2022-10-16T00:08:54;16.15;;;7.07;;
73951;SDS011;62304;47.662;18.324;2022-10-16T00:11:58;13.13;;;6.53;;
73951;SDS011;62304;47.662;18.324;2022-10-16T00:15:01;11.97;;;6.47;;
73951;SDS011;62304;47.662;18.324;2022-10-16T00:18:04;12.77;;;6.70;;
73951;SDS011;62304;47.662;18.324;2022-10-16T00:21:09;13.75;;;7.03;;
73951;SDS011;62304;47.662;18.324;2022-10-16T00:24:15;14.43;;;6.82;;
73951;SDS011;62304;47.662;18.324;2022-10-16T00:27:17;12.63;;;6.60;;
73951;SDS011;62304;47.662;18.324;2022-10-16T00:30:20;11.43;;;6.23;;
73951;SDS011;62304;47.662;18.324;2022-10-16T00:33:23;13.55;;;7.57;;
73951;SDS011;62304;47.662;18.324;2022-10-16T00:36:26;15.93;;;6.60;;
73951;SDS011;62304;47.662;18.324;2022-10-16T00:39:29;14.45;;;6.95;;
73951;SDS011;62304;47.662;18.324;2022-10-16T00:42:33;14.57;;;7.78;;
73951;SDS011;62304;47.662;18.324;2022-10-16T00:45:36;12.93;;;6.90;;
73951;SDS011;62304;47.662;18.324;2022-10-16T00:48:39;12.45;;;6.90;;
73951;SDS011;62304;47.662;18.324;2022-10-16T00:51:43;13.23;;;7.15;;
73951;SDS011;62304;47.662;18.324;2022-10-16T00:54:53;13.05;;;6.47;;
73951;SDS011;62304;47.662;18.324;2022-10-16T00:57:57;12.50;;;7.35;;
73951;SDS011;62304;47.662;18.324;2022-10-16T01:01:00;14.63;;;7.93;;
73951;SDS011;62304;47.662;18.324;2022-10-16T01:04:03;14.30;;;6.22;;
73951;SDS011;62304;47.662;18.324;2022-10-16T01:07:09;16.65;;;7.30;;
73951;SDS011;62304;47.662;18.324;2022-10-16T01:10:35;11.20;;;7.10;;
73951;SDS011;62304;47.662;18.324;2022-10-16T01:13:44;11.88;;;6.15;;
73951;SDS011;62304;47.662;18.324;2022-10-16T01:16:56;15.03;;;6.80;;
73951;SDS011;62304;47.662;18.324;2022-10-16T01:27:05;13.68;;;6.87;;
73951;SDS011;62304;47.662;18.324;2022-10-16T01:30:18;13.70;;;7.40;;
73951;SDS011;62304;47.662;18.324;2022-10-16T01:33:30;11.93;;;6.70;;
73951;SDS011;62304;47.662;18.324;2022-10-16T01:36:45;12.40;;;7.12;;
73951;SDS011;62304;47.662;18.324;2022-10-16T01:39:55;14.45;;;7.45;;
73951;SDS011;62304;47.662;18.324;2022-10-16T01:43:04;12.27;;;7.25;;
73951;SDS011;62304;47.662;18.324;2022-10-16T01:46:11;12.48;;;6.82;;
73951;SDS011;62304;47.662;18.324;2022-10-16T01:49:18;12.43;;;7.17;;
73951;SDS011;62304;47.662;18.324;2022-10-16T01:52:25;13.32;;;6.97;;
73951;SDS011;62304;47.662;18.324;2022-10-16T01:55:31;14.57;;;7.57;;
73951;SDS011;62304;47.662;18.324;2022-10-16T01:58:59;13.10;;;7.18;;
73951;SDS011;62304;47.662;18.324;2022-10-16T02:02:07;13.18;;;7.20;;
73951;SDS011;62304;47.662;18.324;2022-10-16T02:05:16;13.83;;;7.13;;
73951;SDS011;62304;47.662;18.324;2022-10-16T02:08:29;12.52;;;7.20;;
73951;SDS011;62304;47.662;18.324;2022-10-16T02:11:34;13.52;;;8.07;;
73951;SDS011;62304;47.662;18.324;2022-10-16T02:14:38;15.07;;;7.55;;
73951;SDS011;62304;47.662;18.324;2022-10-16T02:17:42;12.80;;;7.15;;
73951;SDS011;62304;47.662;18.324;2022-10-16T02:20:52;13.67;;;8.30;;
73951;SDS011;62304;47.662;18.324;2022-10-16T02:27:16;16.95;;;7.47;;
73951;SDS011;62304;47.662;18.324;2022-10-16T02:30:27;16.25;;;7.90;;
73951;SDS011;62304;47.662;18.324;2022-10-16T02:33:34;12.15;;;7.40;;
73951;SDS011;62304;47.662;18.324;2022-10-16T02:36:40;12.07;;;6.67;;
73951;SDS011;62304;47.662;18.324;2022-10-16T02:39:45;14.32;;;7.55;;
73951;SDS011;62304;47.662;18.324;2022-10-16T02:42:49;13.15;;;6.85;;
73951;SDS011;62304;47.662;18.324;2022-10-16T02:45:53;12.50;;;6.55;;
73951;SDS011;62304;47.662;18.324;2022-10-16T02:48:56;16.27;;;7.60;;
73951;SDS011;62304;47.662;18.324;2022-10-16T02:51:59;13.53;;;6.80;;
73951;SDS011;62304;47.662;18.324;2022-10-16T02:55:02;13.15;;;7.22;;
73951;SDS011;62304;47.662;18.324;2022-10-16T02:58:05;11.98;;;7.12;;
73951;SDS011;62304;47.662;18.324;2022-10-16T03:01:08;12.27;;;7.53;;
73951;SDS011;62304;47.662;18.324;2022-10-16T03:04:11;12.43;;;7.30;;
73951;SDS011;62304;47.662;18.324;2022-10-16T03:07:14;14.30;;;7.23;;
73951;SDS011;62304;47.662;18.324;2022-10-16T03:10:17;16.92;;;7.35;;
73951;SDS011;62304;47.662;18.324;2022-10-16T03:13:20;16.02;;;8.32;;
73951;SDS011;62304;47.662;18.324;2022-10-16T03:16:23;16.20;;;7.55;;
73951;SDS011;62304;47.662;18.324;2022-10-16T03:19:26;19.27;;;8.20;;
73951;SDS011;62304;47.662;18.324;2022-10-16T03:22:28;15.63;;;7.27;;
73951;SDS011;62304;47.662;18.324;2022-10-16T03:25:31;13.07;;;7.20;;
73951;SDS011;62304;47.662;18.324;2022-10-16T03:28:34;15.38;;;8.15;;
73951;SDS011;62304;47.662;18.324;2022-10-16T03:31:38;15.25;;;8.25;;
73951;SDS011;62304;47.662;18.324;2022-10-16T03:34:41;17.35;;;8.23;;
73951;SDS011;62304;47.662;18.324;2022-10-16T03:37:44;12.97;;;7.97;;
73951;SDS011;62304;47.662;18.324;2022-10-16T03:40:46;16.17;;;7.62;;
73951;SDS011;62304;47.662;18.324;2022-10-16T03:43:49;14.68;;;8.23;;
73951;SDS011;62304;47.662;18.324;2022-10-16T03:46:52;16.98;;;8.43;;
73951;SDS011;62304;47.662;18.324;2022-10-16T03:49:55;13.13;;;7.78;;
73951;SDS011;62304;47.662;18.324;2022-10-16T03:52:57;16.57;;;8.47;;
73951;SDS011;62304;47.662;18.324;2022-10-16T03:56:00;16.83;;;8.10;;
73951;SDS011;62304;47.662;18.324;2022-10-16T03:59:03;15.25;;;8.32;;
73951;SDS011;62304;47.662;18.324;2022-10-16T04:02:06;13.98;;;7.62;;
73951;SDS011;62304;47.662;18.324;2022-10-16T04:05:10;14.15;;;7.70;;
73951;SDS011;62304;47.662;18.324;2022-10-16T04:08:12;12.83;;;6.83;;
73951;SDS011;62304;47.662;18.324;2022-10-16T04:11:17;14.65;;;7.65;;
73951;SDS011;62304;47.662;18.324;2022-10-16T04:14:19;14.27;;;7.72;;
73951;SDS011;62304;47.662;18.324;2022-10-16T04:17:22;14.10;;;7.50;;
73951;SDS011;62304;47.662;18.324;2022-10-16T04:20:26;15.10;;;8.00;;
73951;SDS011;62304;47.662;18.324;2022-10-16T04:23:31;16.53;;;7.93;;
73951;SDS011;62304;47.662;18.324;2022-10-16T04:26:34;17.17;;;8.57;;
73951;SDS011;62304;47.662;18.324;2022-10-16T04:29:39;19.02;;;8.82;;
73951;SDS011;62304;47.662;18.324;2022-10-16T04:32:41;14.77;;;7.90;;
73951;SDS011;62304;47.662;18.324;2022-10-16T04:35:44;17.02;;;8.02;;
73951;SDS011;62304;47.662;18.324;2022-10-16T04:38:48;16.83;;;7.70;;
73951;SDS011;62304;47.662;18.324;2022-10-16T04:41:51;20.77;;;8.45;;
73951;SDS011;62304;47.662;18.324;2022-10-16T04:44:53;17.30;;;8.48;;
73951;SDS011;62304;47.662;18.324;2022-10-16T04:47:57;15.60;;;8.45;;
73951;SDS011;62304;47.662;18.324;2022-10-16T04:51:03;17.08;;;8.52;;
73951;SDS011;62304;47.662;18.324;2022-10-16T04:54:06;15.73;;;8.10;;
73951;SDS011;62304;47.662;18.324;2022-10-16T04:57:09;16.12;;;8.07;;
73951;SDS011;62304;47.662;18.324;2022-10-16T05:00:12;14.68;;;8.45;;
73951;SDS011;62304;47.662;18.324;2022-10-16T05:03:15;13.90;;;8.60;;
73951;SDS011;62304;47.662;18.324;2022-10-16T05:06:18;20.83;;;8.68;;
73951;SDS011;62304;47.662;18.324;2022-10-16T05:09:21;18.73;;;8.87;;
73951;SDS011;62304;47.662;18.324;2022-10-16T05:12:24;31.75;;;13.73;;
73951;SDS011;62304;47.662;18.324;2022-10-16T05:15:27;21.90;;;10.88;;
73951;SDS011;62304;47.662;18.324;2022-10-16T05:18:34;18.62;;;8.82;;
73951;SDS011;62304;47.662;18.324;2022-10-16T05:21:38;14.30;;;8.15;;
73951;SDS011;62304;47.662;18.324;2022-10-16T05:24:41;18.37;;;8.50;;
73951;SDS011;62304;47.662;18.324;2022-10-16T05:27:46;16.52;;;8.45;;
73951;SDS011;62304;47.662;18.324;2022-10-16T05:30:50;15.88;;;8.93;;
73951;SDS011;62304;47.662;18.324;2022-10-16T05:33:57;16.00;;;8.23;;
73951;SDS011;62304;47.662;18.324;2022-10-16T05:37:01;14.43;;;7.93;;
73951;SDS011;62304;47.662;18.324;2022-10-16T05:40:04;18.13;;;9.73;;
73951;SDS011;62304;47.662;18.324;2022-10-16T05:43:07;20.12;;;9.18;;
73951;SDS011;62304;47.662;18.324;2022-10-16T05:46:11;17.05;;;8.35;;
73951;SDS011;62304;47.662;18.324;2022-10-16T05:49:14;15.38;;;8.07;;
73951;SDS011;62304;47.662;18.324;2022-10-16T05:52:17;13.75;;;7.35;;
73951;SDS011;62304;47.662;18.324;2022-10-16T05:55:20;16.53;;;7.90;;
73951;SDS011;62304;47.662;18.324;2022-10-16T05:58:23;18.12;;;8.30;;
73951;SDS011;62304;47.662;18.324;2022-10-16T06:01:31;16.40;;;8.85;;
73951;SDS011;62304;47.662;18.324;2022-10-16T06:04:34;16.00;;;8.25;;
73951;SDS011;62304;47.662;18.324;2022-10-16T06:07:37;14.30;;;7.97;;
73951;SDS011;62304;47.662;18.324;2022-10-16T06:10:40;18.07;;;9.30;;
73951;SDS011;62304;47.662;18.324;2022-10-16T06:13:43;14.95;;;8.20;;
73951;SDS011;62304;47.662;18.324;2022-10-16T06:16:48;15.93;;;8.85;;
73951;SDS011;62304;47.662;18.324;2022-10-16T06:19:51;15.75;;;8.70;;
73951;SDS011;62304;47.662;18.324;2022-10-16T06:22:54;14.23;;;7.70;;
73951;SDS011;62304;47.662;18.324;2022-10-16T06:26:03;12.47;;;7.67;;
73951;SDS011;62304;47.662;18.324;2022-10-16T06:29:10;22.42;;;9.48;;
73951;SDS011;62304;47.662;18.324;2022-10-16T06:32:14;13.88;;;7.32;;
73951;SDS011;62304;47.662;18.324;2022-10-16T06:35:17;13.65;;;7.03;;
73951;SDS011;62304;47.662;18.324;2022-10-16T06:38:20;12.98;;;6.82;;
73951;SDS011;62304;47.662;18.324;2022-10-16T06:41:23;12.97;;;6.60;;
73951;SDS011;62304;47.662;18.324;2022-10-16T06:44:25;13.35;;;7.25;;
73951;SDS011;62304;47.662;18.324;2022-10-16T06:47:28;13.00;;;7.97;;
73951;SDS011;62304;47.662;18.324;2022-10-16T06:50:31;16.87;;;7.30;;
73951;SDS011;62304;47.662;18.324;2022-10-16T06:53:35;14.32;;;8.00;;
73951;SDS011;62304;47.662;18.324;2022-10-16T06:56:45;14.93;;;6.70;;
73951;SDS011;62304;47.662;18.324;2022-10-16T06:59:48;14.45;;;6.97;;
73951;SDS011;62304;47.662;18.324;2022-10-16T07:02:56;14.45;;;7.03;;
73951;SDS011;62304;47.662;18.324;2022-10-16T07:06:02;14.27;;;7.57;;
73951;SDS011;62304;47.662;18.324;2022-10-16T07:09:08;15.25;;;7.25;;
73951;SDS011;62304;47.662;18.324;2022-10-16T07:12:12;12.57;;;6.43;;
73951;SDS011;62304;47.662;18.324;2022-10-16T07:15:15;9.23;;;5.47;;
73951;SDS011;62304;47.662;18.324;2022-10-16T07:18:18;13.55;;;7.60;;
73951;SDS011;62304;47.662;18.324;2022-10-16T07:21:21;12.70;;;6.85;;
73951;SDS011;62304;47.662;18.324;2022-10-16T07:24:25;14.93;;;7.25;;
73951;SDS011;62304;47.662;18.324;2022-10-16T07:27:28;11.77;;;6.83;;
73951;SDS011;62304;47.662;18.324;2022-10-16T07:30:34;10.38;;;4.72;;
73951;SDS011;62304;47.662;18.324;2022-10-16T07:33:41;13.05;;;5.90;;
73951;SDS011;62304;47.662;18.324;2022-10-16T07:36:50;12.35;;;6.90;;
73951;SDS011;62304;47.662;18.324;2022-10-16T07:39:53;12.35;;;6.35;;
73951;SDS011;62304;47.662;18.324;2022-10-16T07:42:55;10.40;;;6.83;;
73951;SDS011;62304;47.662;18.324;2022-10-16T07:45:58;12.98;;;7.53;;
73951;SDS011;62304;47.662;18.324;2022-10-16T07:49:09;10.88;;;6.12;;
73951;SDS011;62304;47.662;18.324;2022-10-16T07:52:13;14.60;;;7.62;;
73951;SDS011;62304;47.662;18.324;2022-10-16T07:55:16;15.00;;;7.75;;
73951;SDS011;62304;47.662;18.324;2022-10-16T07:58:19;14.27;;;6.37;;
73951;SDS011;62304;47.662;18.324;2022-10-16T08:01:24;13.93;;;7.00;;
73951;SDS011;62304;47.662;18.324;2022-10-16T08:04:30;13.52;;;7.20;;
73951;SDS011;62304;47.662;18.324;2022-10-16T08:07:33;10.98;;;6.03;;
73951;SDS011;62304;47.662;18.324;2022-10-16T08:10:36;12.32;;;6.57;;
73951;SDS011;62304;47.662;18.324;2022-10-16T08:13:38;12.30;;;6.30;;
73951;SDS011;62304;47.662;18.324;2022-10-16T08:16:41;12.45;;;6.28;;
73951;SDS011;62304;47.662;18.324;2022-10-16T08:19:47;11.77;;;6.40;;
73951;SDS011;62304;47.662;18.324;2022-10-16T08:22:52;14.70;;;7.30;;
73951;SDS011;62304;47.662;18.324;2022-10-16T08:26:00;11.63;;;5.80;;
73951;SDS011;62304;47.662;18.324;2022-10-16T08:29:05;10.57;;;6.27;;
73951;SDS011;62304;47.662;18.324;2022-10-16T08:32:08;10.95;;;6.62;;
73951;SDS011;62304;47.662;18.324;2022-10-16T08:35:11;12.35;;;5.30;;
73951;SDS011;62304;47.662;18.324;2022-10-16T08:38:15;10.27;;;5.57;;
73951;SDS011;62304;47.662;18.324;2022-10-16T08:51:35;11.82;;;6.85;;
73951;SDS011;62304;47.662;18.324;2022-10-16T08:54:46;9.02;;;5.15;;
73951;SDS011;62304;47.662;18.324;2022-10-16T08:57:58;11.70;;;6.12;;
73951;SDS011;62304;47.662;18.324;2022-10-16T09:01:11;12.37;;;5.60;;
73951;SDS011;62304;47.662;18.324;2022-10-16T09:07:48;12.07;;;6.03;;
73951;SDS011;62304;47.662;18.324;2022-10-16T09:11:14;12.07;;;6.25;;
73951;SDS011;62304;47.662;18.324;2022-10-16T09:21:41;10.20;;;5.43;;
73951;SDS011;62304;47.662;18.324;2022-10-16T09:24:46;10.00;;;6.45;;
73951;SDS011;62304;47.662;18.324;2022-10-16T09:27:50;13.32;;;6.18;;
73951;SDS011;62304;47.662;18.324;2022-10-16T09:30:55;6.78;;;3.83;;
73951;SDS011;62304;47.662;18.324;2022-10-16T09:33:59;9.33;;;4.53;;
73951;SDS011;62304;47.662;18.324;2022-10-16T09:37:09;10.10;;;6.70;;
73951;SDS011;62304;47.662;18.324;2022-10-16T09:40:28;14.45;;;6.35;;
73951;SDS011;62304;47.662;18.324;2022-10-16T09:43:34;8.48;;;5.28;;
73951;SDS011;62304;47.662;18.324;2022-10-16T09:46:39;9.80;;;6.32;;
73951;SDS011;62304;47.662;18.324;2022-10-16T09:53:10;10.30;;;6.00;;
73951;SDS011;62304;47.662;18.324;2022-10-16T09:56:25;11.05;;;6.55;;
73951;SDS011;62304;47.662;18.324;2022-10-16T09:59:30;11.35;;;6.78;;
73951;SDS011;62304;47.662;18.324;2022-10-16T10:02:34;13.93;;;6.80;;
73951;SDS011;62304;47.662;18.324;2022-10-16T10:05:40;9.03;;;5.93;;
73951;SDS011;62304;47.662;18.324;2022-10-16T10:08:59;10.85;;;6.32;;
73951;SDS011;62304;47.662;18.324;2022-10-16T10:12:14;10.25;;;5.60;;
73951;SDS011;62304;47.662;18.324;2022-10-16T10:15:29;7.65;;;4.82;;
73951;SDS011;62304;47.662;18.324;2022-10-16T10:18:37;10.35;;;6.70;;
73951;SDS011;62304;47.662;18.324;2022-10-16T10:21:40;10.97;;;6.63;;
73951;SDS011;62304;47.662;18.324;2022-10-16T10:24:44;10.90;;;6.43;;
73951;SDS011;62304;47.662;18.324;2022-10-16T10:35:07;9.95;;;6.20;;
73951;SDS011;62304;47.662;18.324;2022-10-16T10:45:08;10.75;;;6.62;;
73951;SDS011;62304;47.662;18.324;2022-10-16T10:54:51;10.80;;;5.87;;
73951;SDS011;62304;47.662;18.324;2022-10-16T11:08:39;10.60;;;6.53;;
73951;SDS011;62304;47.662;18.324;2022-10-16T11:11:53;9.20;;;5.10;;
73951;SDS011;62304;47.662;18.324;2022-10-16T11:18:24;12.32;;;7.40;;
73951;SDS011;62304;47.662;18.324;2022-10-16T11:21:36;11.75;;;6.80;;
73951;SDS011;62304;47.662;18.324;2022-10-16T11:25:12;9.02;;;6.10;;
73951;SDS011;62304;47.662;18.324;2022-10-16T11:28:31;12.53;;;7.77;;
73951;SDS011;62304;47.662;18.324;2022-10-16T11:31:40;12.80;;;7.78;;
73951;SDS011;62304;47.662;18.324;2022-10-16T11:34:52;11.23;;;8.00;;
73951;SDS011;62304;47.662;18.324;2022-10-16T11:38:02;12.90;;;7.47;;
73951;SDS011;62304;47.662;18.324;2022-10-16T11:51:11;11.43;;;6.15;;
73951;SDS011;62304;47.662;18.324;2022-10-16T11:54:28;10.70;;;7.20;;
73951;SDS011;62304;47.662;18.324;2022-10-16T11:57:48;12.05;;;7.20;;
73951;SDS011;62304;47.662;18.324;2022-10-16T12:07:19;11.10;;;8.02;;
73951;SDS011;62304;47.662;18.324;2022-10-16T12:10:29;13.38;;;6.82;;
73951;SDS011;62304;47.662;18.324;2022-10-16T12:13:43;10.57;;;7.57;;
73951;SDS011;62304;47.662;18.324;2022-10-16T12:16:51;12.53;;;7.23;;
73951;SDS011;62304;47.662;18.324;2022-10-16T12:19:59;12.18;;;7.68;;
73951;SDS011;62304;47.662;18.324;2022-10-16T12:23:22;12.60;;;8.43;;
73951;SDS011;62304;47.662;18.324;2022-10-16T12:26:31;13.05;;;7.43;;
73951;SDS011;62304;47.662;18.324;2022-10-16T12:29:41;13.05;;;7.75;;
73951;SDS011;62304;47.662;18.324;2022-10-16T12:32:46;12.07;;;6.87;;
73951;SDS011;62304;47.662;18.324;2022-10-16T12:36:04;11.27;;;5.90;;
73951;SDS011;62304;47.662;18.324;2022-10-16T12:39:33;14.40;;;7.93;;
73951;SDS011;62304;47.662;18.324;2022-10-16T12:42:36;12.05;;;8.35;;
73951;SDS011;62304;47.662;18.324;2022-10-16T12:45:39;13.55;;;8.00;;
73951;SDS011;62304;47.662;18.324;2022-10-16T12:48:43;12.97;;;8.40;;
73951;SDS011;62304;47.662;18.324;2022-10-16T12:52:23;13.55;;;6.97;;
73951;SDS011;62304;47.662;18.324;2022-10-16T12:55:34;11.48;;;7.40;;
73951;SDS011;62304;47.662;18.324;2022-10-16T13:05:32;11.40;;;8.00;;
73951;SDS011;62304;47.662;18.324;2022-10-16T13:25:31;12.32;;;7.47;;
73951;SDS011;62304;47.662;18.324;2022-10-16T13:28:43;12.77;;;7.80;;
73951;SDS011;62304;47.662;18.324;2022-10-16T13:31:47;12.05;;;7.87;;
73951;SDS011;62304;47.662;18.324;2022-10-16T13:34:50;12.27;;;7.47;;
73951;SDS011;62304;47.662;18.324;2022-10-16T13:41:14;16.12;;;7.22;;
73951;SDS011;62304;47.662;18.324;2022-10-16T13:44:20;13.98;;;7.00;;
73951;SDS011;62304;47.662;18.324;2022-10-16T13:47:24;12.80;;;7.32;;
73951;SDS011;62304;47.662;18.324;2022-10-16T13:50:32;11.93;;;7.12;;
73951;SDS011;62304;47.662;18.324;2022-10-16T13:53:37;10.13;;;5.77;;
73951;SDS011;62304;47.662;18.324;2022-10-16T13:56:40;15.75;;;6.87;;
73951;SDS011;62304;47.662;18.324;2022-10-16T13:59:43;13.32;;;6.87;;
73951;SDS011;62304;47.662;18.324;2022-10-16T14:02:49;12.70;;;7.18;;
73951;SDS011;62304;47.662;18.324;2022-10-16T14:06:00;10.82;;;7.22;;
73951;SDS011;62304;47.662;18.324;2022-10-16T14:09:06;15.10;;;6.67;;
73951;SDS011;62304;47.662;18.324;2022-10-16T14:12:32;11.25;;;7.28;;
73951;SDS011;62304;47.662;18.324;2022-10-16T14:15:36;14.52;;;6.70;;
73951;SDS011;62304;47.662;18.324;2022-10-16T14:18:39;11.60;;;6.80;;
73951;SDS011;62304;47.662;18.324;2022-10-16T14:21:42;14.70;;;7.32;;
73951;SDS011;62304;47.662;18.324;2022-10-16T14:24:45;12.77;;;7.10;;
73951;SDS011;62304;47.662;18.324;2022-10-16T14:31:31;12.75;;;6.85;;
73951;SDS011;62304;47.662;18.324;2022-10-16T14:34:35;12.05;;;6.30;;
73951;SDS011;62304;47.662;18.324;2022-10-16T14:37:42;15.63;;;7.80;;
73951;SDS011;62304;47.662;18.324;2022-10-16T14:40:48;16.20;;;8.83;;
73951;SDS011;62304;47.662;18.324;2022-10-16T14:43:55;76.87;;;27.13;;
73951;SDS011;62304;47.662;18.324;2022-10-16T14:47:06;46.30;;;19.05;;
73951;SDS011;62304;47.662;18.324;2022-10-16T14:50:12;41.15;;;17.48;;
73951;SDS011;62304;47.662;18.324;2022-10-16T14:53:15;31.73;;;14.52;;
73951;SDS011;62304;47.662;18.324;2022-10-16T14:56:22;48.40;;;20.87;;
73951;SDS011;62304;47.662;18.324;2022-10-16T14:59:32;34.25;;;16.60;;
73951;SDS011;62304;47.662;18.324;2022-10-16T15:02:40;18.10;;;11.18;;
73951;SDS011;62304;47.662;18.324;2022-10-16T15:05:43;16.60;;;7.28;;
73951;SDS011;62304;47.662;18.324;2022-10-16T15:08:46;17.42;;;8.65;;
73951;SDS011;62304;47.662;18.324;2022-10-16T15:11:50;15.40;;;7.53;;
73951;SDS011;62304;47.662;18.324;2022-10-16T15:14:53;21.70;;;11.82;;
73951;SDS011;62304;47.662;18.324;2022-10-16T15:17:56;20.95;;;12.45;;
73951;SDS011;62304;47.662;18.324;2022-10-16T15:20:59;16.00;;;8.38;;
73951;SDS011;62304;47.662;18.324;2022-10-16T15:24:04;11.85;;;7.15;;
73951;SDS011;62304;47.662;18.324;2022-10-16T15:27:19;11.60;;;7.10;;
73951;SDS011;62304;47.662;18.324;2022-10-16T15:30:21;18.80;;;11.82;;
73951;SDS011;62304;47.662;18.324;2022-10-16T15:33:25;20.40;;;13.23;;
73951;SDS011;62304;47.662;18.324;2022-10-16T15:36:40;21.10;;;13.95;;
73951;SDS011;62304;47.662;18.324;2022-10-16T15:39:43;22.70;;;13.68;;
73951;SDS011;62304;47.662;18.324;2022-10-16T15:42:46;37.13;;;20.93;;
73951;SDS011;62304;47.662;18.324;2022-10-16T15:46:00;33.97;;;20.60;;
73951;SDS011;62304;47.662;18.324;2022-10-16T15:49:05;25.08;;;13.35;;
73951;SDS011;62304;47.662;18.324;2022-10-16T15:52:09;16.30;;;11.20;;
73951;SDS011;62304;47.662;18.324;2022-10-16T15:55:12;23.77;;;12.15;;
73951;SDS011;62304;47.662;18.324;2022-10-16T15:58:16;26.50;;;15.33;;
73951;SDS011;62304;47.662;18.324;2022-10-16T16:01:20;37.38;;;22.30;;
73951;SDS011;62304;47.662;18.324;2022-10-16T16:04:24;33.92;;;20.45;;
73951;SDS011;62304;47.662;18.324;2022-10-16T16:07:44;33.15;;;19.33;;
73951;SDS011;62304;47.662;18.324;2022-10-16T16:10:57;38.00;;;20.37;;
73951;SDS011;62304;47.662;18.324;2022-10-16T16:14:03;36.57;;;18.63;;
73951;SDS011;62304;47.662;18.324;2022-10-16T16:17:07;41.85;;;19.73;;
73951;SDS011;62304;47.662;18.324;2022-10-16T16:20:10;45.85;;;20.95;;
73951;SDS011;62304;47.662;18.324;2022-10-16T16:23:14;48.55;;;23.85;;
73951;SDS011;62304;47.662;18.324;2022-10-16T16:26:27;56.17;;;29.58;;
73951;SDS011;62304;47.662;18.324;2022-10-16T16:29:35;32.40;;;19.07;;
73951;SDS011;62304;47.662;18.324;2022-10-16T16:32:38;24.37;;;14.48;;
73951;SDS011;62304;47.662;18.324;2022-10-16T16:35:42;21.92;;;12.32;;
73951;SDS011;62304;47.662;18.324;2022-10-16T16:38:45;20.65;;;11.80;;
73951;SDS011;62304;47.662;18.324;2022-10-16T16:41:48;17.70;;;10.82;;
73951;SDS011;62304;47.662;18.324;2022-10-16T16:44:52;16.83;;;10.30;;
73951;SDS011;62304;47.662;18.324;2022-10-16T16:47:55;18.08;;;9.10;;
73951;SDS011;62304;47.662;18.324;2022-10-16T16:51:05;16.50;;;7.18;;
73951;SDS011;62304;47.662;18.324;2022-10-16T16:54:11;15.23;;;7.70;;
73951;SDS011;62304;47.662;18.324;2022-10-16T16:57:16;15.10;;;7.65;;
73951;SDS011;62304;47.662;18.324;2022-10-16T17:00:21;14.67;;;7.93;;
73951;SDS011;62304;47.662;18.324;2022-10-16T17:03:24;14.05;;;7.90;;
73951;SDS011;62304;47.662;18.324;2022-10-16T17:06:27;15.07;;;7.10;;
73951;SDS011;62304;47.662;18.324;2022-10-16T17:09:34;14.20;;;7.60;;
73951;SDS011;62304;47.662;18.324;2022-10-16T17:12:38;12.30;;;7.80;;
73951;SDS011;62304;47.662;18.324;2022-10-16T17:15:48;16.30;;;8.23;;
73951;SDS011;62304;47.662;18.324;2022-10-16T17:18:52;19.37;;;9.10;;
73951;SDS011;62304;47.662;18.324;2022-10-16T17:21:57;14.48;;;8.55;;
73951;SDS011;62304;47.662;18.324;2022-10-16T17:25:01;18.08;;;8.63;;
73951;SDS011;62304;47.662;18.324;2022-10-16T17:28:06;18.62;;;9.65;;
73951;SDS011;62304;47.662;18.324;2022-10-16T17:31:17;22.00;;;11.70;;
73951;SDS011;62304;47.662;18.324;2022-10-16T17:34:23;18.33;;;11.45;;
73951;SDS011;62304;47.662;18.324;2022-10-16T17:37:27;19.50;;;11.85;;
73951;SDS011;62304;47.662;18.324;2022-10-16T17:40:30;21.87;;;10.93;;
73951;SDS011;62304;47.662;18.324;2022-10-16T17:43:33;19.75;;;10.30;;
73951;SDS011;62304;47.662;18.324;2022-10-16T17:46:36;17.07;;;10.13;;
73951;SDS011;62304;47.662;18.324;2022-10-16T17:49:42;18.52;;;10.13;;
73951;SDS011;62304;47.662;18.324;2022-10-16T17:52:46;21.52;;;10.85;;
73951;SDS011;62304;47.662;18.324;2022-10-16T17:55:50;29.60;;;11.15;;
73951;SDS011;62304;47.662;18.324;2022-10-16T17:59:00;19.58;;;9.27;;
73951;SDS011;62304;47.662;18.324;2022-10-16T18:02:05;19.20;;;9.40;;
73951;SDS011;62304;47.662;18.324;2022-10-16T18:05:12;16.30;;;7.78;;
73951;SDS011;62304;47.662;18.324;2022-10-16T18:08:15;18.50;;;7.93;;
73951;SDS011;62304;47.662;18.324;2022-10-16T18:11:19;18.33;;;7.57;;
73951;SDS011;62304;47.662;18.324;2022-10-16T18:14:24;20.12;;;6.95;;
73951;SDS011;62304;47.662;18.324;2022-10-16T18:17:29;18.13;;;7.77;;
73951;SDS011;62304;47.662;18.324;2022-10-16T18:20:32;20.12;;;7.40;;
73951;SDS011;62304;47.662;18.324;2022-10-16T18:23:36;15.57;;;6.80;;
73951;SDS011;62304;47.662;18.324;2022-10-16T18:26:40;14.20;;;6.57;;
73951;SDS011;62304;47.662;18.324;2022-10-16T18:29:44;17.30;;;7.15;;
73951;SDS011;62304;47.662;18.324;2022-10-16T18:32:47;12.63;;;6.47;;
73951;SDS011;62304;47.662;18.324;2022-10-16T18:35:51;11.05;;;6.22;;
73951;SDS011;62304;47.662;18.324;2022-10-16T18:38:55;11.00;;;5.90;;
73951;SDS011;62304;47.662;18.324;2022-10-16T18:41:59;13.18;;;6.78;;
73951;SDS011;62304;47.662;18.324;2022-10-16T18:45:03;11.05;;;5.57;;
73951;SDS011;62304;47.662;18.324;2022-10-16T18:48:06;10.47;;;5.40;;
73951;SDS011;62304;47.662;18.324;2022-10-16T18:51:18;9.48;;;4.40;;
73951;SDS011;62304;47.662;18.324;2022-10-16T18:54:26;10.18;;;4.57;;
73951;SDS011;62304;47.662;18.324;2022-10-16T18:57:33;11.02;;;5.50;;
73951;SDS011;62304;47.662;18.324;2022-10-16T19:00:36;8.90;;;4.82;;
73951;SDS011;62304;47.662;18.324;2022-10-16T19:03:39;11.07;;;5.27;;
73951;SDS011;62304;47.662;18.324;2022-10-16T19:06:44;10.70;;;5.18;;
73951;SDS011;62304;47.662;18.324;2022-10-16T19:09:49;9.60;;;5.18;;
73951;SDS011;62304;47.662;18.324;2022-10-16T19:12:52;8.05;;;4.45;;
73951;SDS011;62304;47.662;18.324;2022-10-16T19:15:55;9.85;;;5.12;;
73951;SDS011;62304;47.662;18.324;2022-10-16T19:19:14;10.37;;;5.00;;
73951;SDS011;62304;47.662;18.324;2022-10-16T19:22:21;12.52;;;5.35;;
73951;SDS011;62304;47.662;18.324;2022-10-16T19:25:35;15.88;;;5.85;;
73951;SDS011;62304;47.662;18.324;2022-10-16T19:28:40;11.73;;;5.10;;
73951;SDS011;62304;47.662;18.324;2022-10-16T19:31:44;11.50;;;5.62;;
73951;SDS011;62304;47.662;18.324;2022-10-16T19:34:48;9.73;;;5.10;;
73951;SDS011;62304;47.662;18.324;2022-10-16T19:37:53;9.70;;;5.28;;
73951;SDS011;62304;47.662;18.324;2022-10-16T19:41:03;9.70;;;5.60;;
73951;SDS011;62304;47.662;18.324;2022-10-16T19:44:07;8.80;;;4.72;;
73951;SDS011;62304;47.662;18.324;2022-10-16T19:47:12;12.50;;;5.65;;
73951;SDS011;62304;47.662;18.324;2022-10-16T19:50:16;9.87;;;5.20;;
73951;SDS011;62304;47.662;18.324;2022-10-16T19:53:21;11.90;;;5.93;;
73951;SDS011;62304;47.662;18.324;2022-10-16T19:56:24;10.82;;;5.50;;
73951;SDS011;62304;47.662;18.324;2022-10-16T19:59:30;12.05;;;5.62;;
73951;SDS011;62304;47.662;18.324;2022-10-16T20:02:33;10.15;;;5.25;;
73951;SDS011;62304;47.662;18.324;2022-10-16T20:05:36;10.83;;;5.80;;